createdAt,value
2023-01-09T00:00:36.423Z,62.46
2023-01-09T00:01:36.327Z,60.00
2023-01-09T00:02:36.413Z,54.07
2023-01-09T00:03:36.402Z,57.06
2023-01-09T00:04:36.307Z,57.02
2023-01-09T00:05:36.340Z,56.15
2023-01-09T00:06:36.294Z,56.07
2023-01-09T00:07:36.277Z,56.24
2023-01-09T00:08:37.134Z,59.27
2023-01-09T00:09:36.269Z,54.97
2023-01-09T00:10:36.288Z,58.94
2023-01-09T00:11:36.272Z,55.34
2023-01-09T00:12:36.253Z,55.45
2023-01-09T00:13:36.245Z,55.19
2023-01-09T00:14:36.273Z,54.27
2023-01-09T00:15:36.231Z,56.05
2023-01-09T00:16:36.293Z,60.50
2023-01-09T00:17:36.227Z,56.82
2023-01-09T00:18:36.207Z,56.19
2023-01-09T00:19:36.224Z,54.47
2023-01-09T00:20:36.236Z,53.86
2023-01-09T00:21:36.191Z,55.06
2023-01-09T00:22:36.181Z,53.41
2023-01-09T00:23:36.223Z,55.69
2023-01-09T00:24:36.184Z,55.16
2023-01-09T00:25:36.164Z,61.60
2023-01-09T00:26:36.193Z,56.07
2023-01-09T00:27:36.182Z,56.61
2023-01-09T00:28:36.139Z,55.57
2023-01-09T00:29:36.157Z,54.52
2023-01-09T00:30:36.148Z,59.43
2023-01-09T00:31:36.123Z,53.89
2023-01-09T00:32:36.122Z,55.00
2023-01-09T00:33:36.106Z,59.75
2023-01-09T00:34:36.122Z,55.39
2023-01-09T00:35:36.091Z,53.03
2023-01-09T00:36:36.085Z,54.64
2023-01-09T00:37:36.135Z,55.67
2023-01-09T00:38:36.079Z,56.18
2023-01-09T00:39:36.064Z,56.12
2023-01-09T00:40:36.085Z,54.57
2023-01-09T00:41:36.064Z,54.78
2023-01-09T00:42:36.042Z,55.05
2023-01-09T00:43:36.109Z,54.73
2023-01-09T00:44:36.038Z,59.51
2023-01-09T00:45:36.058Z,55.30
2023-01-09T00:46:36.058Z,60.85
2023-01-09T00:47:36.012Z,61.62
2023-01-09T00:48:36.032Z,56.85
2023-01-09T00:49:36.026Z,56.23
2023-01-09T00:50:35.991Z,55.58
2023-01-09T00:51:35.993Z,62.43
2023-01-09T00:52:36.019Z,58.60
2023-01-09T00:53:35.969Z,55.07
2023-01-09T00:54:36.973Z,55.45
2023-01-09T00:55:35.981Z,55.27
2023-01-09T00:56:35.960Z,56.61
2023-01-09T00:57:35.953Z,57.25
2023-01-09T00:58:35.982Z,58.41
2023-01-09T00:59:35.950Z,60.78
2023-01-09T01:00:35.948Z,57.73
2023-01-09T01:01:36.166Z,66.54
2023-01-09T01:02:35.961Z,62.86
2023-01-09T01:03:35.912Z,57.48
2023-01-09T01:04:35.933Z,57.12
2023-01-09T01:05:35.897Z,58.01
2023-01-09T01:06:35.880Z,57.83
2023-01-09T01:07:35.921Z,58.04
2023-01-09T01:08:35.874Z,58.54
2023-01-09T01:09:35.882Z,59.21
2023-01-09T01:10:35.870Z,58.70
2023-01-09T01:11:35.844Z,60.68
2023-01-09T01:12:35.856Z,60.29
2023-01-09T01:13:35.852Z,57.92
2023-01-09T01:14:35.880Z,57.23
2023-01-09T01:15:35.824Z,58.08
2023-01-09T01:16:35.868Z,61.69
2023-01-09T01:17:36.628Z,59.75
2023-01-09T01:18:35.805Z,57.53
2023-01-09T01:19:35.836Z,58.12
2023-01-09T01:20:35.853Z,58.76
2023-01-09T01:21:35.796Z,58.16
2023-01-09T01:22:35.804Z,58.85
2023-01-09T01:23:35.775Z,58.51
2023-01-09T01:24:35.771Z,59.56
2023-01-09T01:25:35.801Z,60.83
2023-01-09T01:26:35.761Z,56.70
2023-01-09T01:27:35.785Z,56.06
2023-01-09T01:28:35.761Z,60.34
2023-01-09T01:29:35.740Z,61.91
2023-01-09T01:30:35.760Z,57.62
2023-01-09T01:31:35.765Z,58.67
2023-01-09T01:32:35.732Z,59.97
2023-01-09T01:33:35.712Z,56.34
2023-01-09T01:34:35.728Z,55.68
2023-01-09T01:35:35.709Z,55.90
2023-01-09T01:36:35.712Z,56.59
2023-01-09T01:37:35.694Z,55.76
2023-01-09T01:38:35.673Z,60.24
2023-01-09T01:39:35.667Z,56.89
2023-01-09T01:40:35.690Z,56.02
2023-01-09T01:41:35.680Z,55.43
2023-01-09T01:42:35.645Z,55.60
2023-01-09T01:43:35.660Z,56.94
2023-01-09T01:44:35.658Z,59.36
2023-01-09T01:45:35.625Z,56.16
2023-01-09T01:46:35.648Z,56.91
2023-01-09T01:47:35.655Z,57.48
2023-01-09T01:48:35.628Z,61.50
2023-01-09T01:49:35.627Z,61.51
2023-01-09T01:50:35.595Z,55.30
2023-01-09T01:51:35.634Z,55.86
2023-01-09T01:52:35.628Z,65.60
2023-01-09T01:53:35.567Z,56.48
2023-01-09T01:54:35.585Z,56.41
2023-01-09T01:55:35.593Z,57.75
2023-01-09T01:56:35.562Z,66.50
2023-01-09T01:57:35.562Z,57.74
2023-01-09T01:58:35.563Z,57.07
2023-01-09T01:59:35.542Z,57.29
2023-01-09T02:00:35.580Z,57.17
2023-01-09T02:01:35.659Z,57.73
2023-01-09T02:02:35.586Z,62.31
2023-01-09T02:03:35.546Z,62.99
2023-01-09T02:04:35.538Z,64.59
2023-01-09T02:05:35.549Z,59.79
2023-01-09T02:06:35.489Z,61.08
2023-01-09T02:07:35.555Z,55.65
2023-01-09T02:08:35.533Z,62.65
2023-01-09T02:09:35.488Z,58.01
2023-01-09T02:10:35.507Z,56.70
2023-01-09T02:11:35.474Z,57.89
2023-01-09T02:12:35.460Z,61.16
2023-01-09T02:13:35.485Z,57.34
2023-01-09T02:14:35.441Z,57.14
2023-01-09T02:15:35.433Z,58.16
2023-01-09T02:16:35.433Z,59.01
2023-01-09T02:17:35.423Z,60.96
2023-01-09T02:18:35.435Z,56.60
2023-01-09T02:19:35.427Z,56.86
2023-01-09T02:20:35.394Z,59.81
2023-01-09T02:21:35.397Z,57.79
2023-01-09T02:22:35.415Z,57.84
2023-01-09T02:23:35.399Z,58.10
2023-01-09T02:24:35.374Z,58.84
2023-01-09T02:25:35.395Z,60.17
2023-01-09T02:26:35.368Z,59.83
2023-01-09T02:27:35.364Z,59.45
2023-01-09T02:28:35.391Z,59.21
2023-01-09T02:29:35.360Z,59.03
2023-01-09T02:30:35.345Z,58.94
2023-01-09T02:31:35.386Z,63.94
2023-01-09T02:32:35.329Z,59.75
2023-01-09T02:33:35.324Z,59.55
2023-01-09T02:34:35.342Z,67.88
2023-01-09T02:35:35.312Z,63.38
2023-01-09T02:36:35.301Z,64.07
2023-01-09T02:37:35.308Z,62.12
2023-01-09T02:38:35.304Z,63.93
2023-01-09T02:39:35.281Z,63.33
2023-01-09T02:40:35.315Z,59.14
2023-01-09T02:41:35.278Z,58.11
2023-01-09T02:42:35.258Z,57.80
2023-01-09T02:43:35.273Z,65.03
2023-01-09T02:44:35.251Z,59.64
2023-01-09T02:45:35.302Z,59.86
2023-01-09T02:46:35.250Z,67.49
2023-01-09T02:47:35.230Z,60.17
2023-01-09T02:48:35.219Z,60.50
2023-01-09T02:49:35.236Z,58.03
2023-01-09T02:50:35.209Z,58.32
2023-01-09T02:51:35.326Z,58.32
2023-01-09T02:52:35.222Z,65.63
2023-01-09T02:53:35.190Z,61.02
2023-01-09T02:54:35.181Z,60.40
2023-01-09T02:55:35.181Z,57.61
2023-01-09T02:56:35.197Z,57.05
2023-01-09T02:57:35.233Z,62.60
2023-01-09T02:58:35.176Z,56.84
2023-01-09T02:59:35.157Z,58.89
2023-01-09T03:00:35.154Z,56.97
2023-01-09T03:01:35.275Z,56.50
2023-01-09T03:02:35.182Z,56.52
2023-01-09T03:03:35.132Z,59.90
2023-01-09T03:04:35.125Z,55.97
2023-01-09T03:05:35.132Z,56.60
2023-01-09T03:06:35.113Z,56.74
2023-01-09T03:07:35.132Z,62.11
2023-01-09T03:08:35.109Z,56.33
2023-01-09T03:09:35.099Z,61.80
2023-01-09T03:10:35.090Z,70.45
2023-01-09T03:11:35.089Z,58.18
2023-01-09T03:12:35.096Z,60.91
2023-01-09T03:13:35.059Z,56.68
2023-01-09T03:14:35.064Z,56.56
2023-01-09T03:15:35.073Z,56.45
2023-01-09T03:16:35.133Z,65.25
2023-01-09T03:17:35.055Z,61.14
2023-01-09T03:18:35.054Z,55.93
2023-01-09T03:19:35.026Z,55.96
2023-01-09T03:20:35.021Z,60.32
2023-01-09T03:21:35.031Z,56.05
2023-01-09T03:22:35.013Z,56.40
2023-01-09T03:23:34.997Z,56.40
2023-01-09T03:24:35.005Z,62.97
2023-01-09T03:25:35.003Z,60.35
2023-01-09T03:26:35.000Z,55.11
2023-01-09T03:27:35.024Z,55.83
2023-01-09T03:28:34.985Z,60.80
2023-01-09T03:29:34.990Z,55.24
2023-01-09T03:30:35.000Z,60.93
2023-01-09T03:31:35.046Z,66.27
2023-01-09T03:32:34.951Z,68.12
2023-01-09T03:33:34.946Z,66.09
2023-01-09T03:34:34.938Z,60.71
2023-01-09T03:35:34.929Z,64.30
2023-01-09T03:36:34.947Z,65.66
2023-01-09T03:37:34.904Z,61.55
2023-01-09T03:38:34.903Z,61.03
2023-01-09T03:39:34.919Z,59.86
2023-01-09T03:40:34.893Z,62.02
2023-01-09T03:41:35.054Z,63.00
2023-01-09T03:42:34.878Z,55.99
2023-01-09T03:43:34.876Z,61.35
2023-01-09T03:44:34.861Z,60.42
2023-01-09T03:45:34.916Z,60.77
2023-01-09T03:46:34.885Z,60.05
2023-01-09T03:47:34.867Z,60.25
2023-01-09T03:48:34.857Z,60.17
2023-01-09T03:49:34.827Z,60.32
2023-01-09T03:50:34.838Z,64.67
2023-01-09T03:51:34.839Z,68.71
2023-01-09T03:52:34.817Z,63.58
2023-01-09T03:53:34.829Z,62.67
2023-01-09T03:54:34.807Z,69.61
2023-01-09T03:55:34.794Z,60.29
2023-01-09T03:56:34.791Z,64.67
2023-01-09T03:57:34.833Z,61.86
2023-01-09T03:58:34.789Z,65.55
2023-01-09T03:59:34.796Z,68.66
2023-01-09T04:00:34.780Z,67.35
2023-01-09T04:01:34.820Z,65.11
2023-01-09T04:02:34.752Z,67.06
2023-01-09T04:03:34.784Z,63.26
2023-01-09T04:04:35.767Z,62.95
2023-01-09T04:05:34.747Z,69.13
2023-01-09T04:06:34.736Z,69.48
2023-01-09T04:07:34.725Z,64.85
2023-01-09T04:08:34.718Z,64.84
2023-01-09T04:09:34.739Z,62.47
2023-01-09T04:10:34.699Z,74.39
2023-01-09T04:11:35.709Z,67.66
2023-01-09T04:12:34.710Z,63.57
2023-01-09T04:13:34.695Z,59.18
2023-01-09T04:14:34.687Z,69.19
2023-01-09T04:15:34.707Z,67.69
2023-01-09T04:16:34.747Z,65.32
2023-01-09T04:17:34.669Z,66.04
2023-01-09T04:18:34.667Z,69.49
2023-01-09T04:19:34.679Z,65.74
2023-01-09T04:20:34.651Z,66.99
2023-01-09T04:21:34.668Z,69.86
2023-01-09T04:22:34.641Z,65.70
2023-01-09T04:23:34.627Z,62.09
2023-01-09T04:24:34.667Z,68.94
2023-01-09T04:25:34.631Z,64.67
2023-01-09T04:26:34.621Z,64.53
2023-01-09T04:27:35.640Z,64.34
2023-01-09T04:28:34.606Z,73.77
2023-01-09T04:29:34.618Z,68.06
2023-01-09T04:30:34.629Z,71.81
2023-01-09T04:31:34.621Z,71.64
2023-01-09T04:32:34.588Z,65.68
2023-01-09T04:33:34.594Z,70.79
2023-01-09T04:34:34.575Z,66.35
2023-01-09T04:35:34.584Z,69.19
2023-01-09T04:36:34.568Z,77.22
2023-01-09T04:37:34.547Z,66.78
2023-01-09T04:38:34.539Z,68.50
2023-01-09T04:39:35.555Z,69.28
2023-01-09T04:40:34.545Z,70.50
2023-01-09T04:41:34.530Z,61.40
2023-01-09T04:42:34.522Z,61.72
2023-01-09T04:43:34.515Z,76.09
2023-01-09T04:44:34.523Z,73.16
2023-01-09T04:45:34.611Z,69.01
2023-01-09T04:46:34.527Z,65.53
2023-01-09T04:47:34.506Z,72.64
2023-01-09T04:48:34.499Z,73.39
2023-01-09T04:49:34.487Z,72.39
2023-01-09T04:50:34.481Z,72.04
2023-01-09T04:51:34.492Z,63.33
2023-01-09T04:52:34.464Z,71.72
2023-01-09T04:53:34.451Z,70.70
2023-01-09T04:54:34.475Z,71.00
2023-01-09T04:55:34.451Z,72.24
2023-01-09T04:56:34.459Z,71.10
2023-01-09T04:57:34.440Z,70.86
2023-01-09T04:58:34.415Z,69.92
2023-01-09T04:59:34.422Z,68.08
2023-01-09T05:00:34.424Z,74.94
2023-01-09T05:01:34.529Z,65.55
2023-01-09T05:02:34.420Z,64.67
2023-01-09T05:03:34.395Z,72.15
2023-01-09T05:04:34.428Z,71.14
2023-01-09T05:05:34.388Z,69.65
2023-01-09T05:06:34.435Z,73.64
2023-01-09T05:07:34.382Z,72.75
2023-01-09T05:08:34.360Z,70.31
2023-01-09T05:09:34.360Z,68.30
2023-01-09T05:10:34.348Z,63.02
2023-01-09T05:11:34.350Z,69.98
2023-01-09T05:12:34.365Z,67.53
2023-01-09T05:13:34.332Z,75.87
2023-01-09T05:14:34.320Z,69.54
2023-01-09T05:15:34.326Z,69.01
2023-01-09T05:16:34.350Z,73.71
2023-01-09T05:17:34.315Z,74.64
2023-01-09T05:18:34.342Z,68.64
2023-01-09T05:19:34.287Z,72.87
2023-01-09T05:20:34.279Z,67.68
2023-01-09T05:21:34.287Z,71.81
2023-01-09T05:22:34.284Z,65.45
2023-01-09T05:23:34.260Z,69.16
2023-01-09T05:24:34.267Z,62.14
2023-01-09T05:25:34.319Z,71.45
2023-01-09T05:26:34.263Z,72.99
2023-01-09T05:27:34.234Z,71.98
2023-01-09T05:28:34.257Z,67.05
2023-01-09T05:29:34.251Z,71.10
2023-01-09T05:30:34.214Z,68.41
2023-01-09T05:31:34.283Z,72.18
2023-01-09T05:32:34.206Z,72.30
2023-01-09T05:33:34.204Z,72.51
2023-01-09T05:34:34.194Z,72.56
2023-01-09T05:35:34.197Z,70.34
2023-01-09T05:36:34.198Z,71.60
2023-01-09T05:37:34.171Z,74.36
2023-01-09T05:38:34.171Z,72.52
2023-01-09T05:39:34.162Z,72.02
2023-01-09T05:40:40.046Z,71.74
2023-01-09T05:41:36.166Z,73.37
2023-01-09T05:42:34.142Z,71.41
2023-01-09T05:43:34.131Z,71.97
2023-01-09T05:44:34.178Z,70.79
2023-01-09T05:45:34.186Z,72.89
2023-01-09T05:46:34.123Z,73.73
2023-01-09T05:47:34.123Z,72.36
2023-01-09T05:48:34.110Z,72.26
2023-01-09T05:49:34.115Z,70.01
2023-01-09T05:50:34.235Z,71.27
2023-01-09T05:51:34.087Z,71.32
2023-01-09T05:52:34.120Z,70.60
2023-01-09T05:53:34.140Z,72.20
2023-01-09T05:54:34.082Z,71.38
2023-01-09T05:55:34.102Z,71.77
2023-01-09T05:56:34.082Z,75.50
2023-01-09T05:57:34.056Z,71.23
2023-01-09T05:58:34.046Z,76.22
2023-01-09T05:59:34.077Z,71.37
2023-01-09T06:00:34.032Z,71.93
2023-01-09T06:01:34.133Z,69.83
2023-01-09T06:02:34.148Z,72.28
2023-01-09T06:03:34.014Z,71.79
2023-01-09T06:04:34.071Z,72.28
2023-01-09T06:05:34.046Z,73.05
2023-01-09T06:06:34.031Z,73.78
2023-01-09T06:07:33.997Z,71.36
2023-01-09T06:08:34.001Z,74.57
2023-01-09T06:09:33.992Z,69.63
2023-01-09T06:10:33.975Z,73.50
2023-01-09T06:11:33.981Z,68.63
2023-01-09T06:12:33.980Z,74.13
2023-01-09T06:13:33.970Z,71.73
2023-01-09T06:14:33.943Z,73.48
2023-01-09T06:15:33.991Z,73.91
2023-01-09T06:16:33.944Z,73.62
2023-01-09T06:17:33.923Z,74.19
2023-01-09T06:18:33.957Z,75.66
2023-01-09T06:19:33.926Z,74.16
2023-01-09T06:20:33.912Z,73.64
2023-01-09T06:21:33.926Z,73.23
2023-01-09T06:22:33.910Z,73.65
2023-01-09T06:23:33.922Z,69.83
2023-01-09T06:24:33.898Z,72.72
2023-01-09T06:25:33.889Z,75.86
2023-01-09T06:26:33.895Z,76.53
2023-01-09T06:27:33.885Z,72.61
2023-01-09T06:28:33.881Z,71.85
2023-01-09T06:29:33.896Z,73.67
2023-01-09T06:30:33.890Z,72.57
2023-01-09T06:31:33.903Z,75.30
2023-01-09T06:32:33.852Z,72.65
2023-01-09T06:33:33.846Z,73.52
2023-01-09T06:34:33.843Z,73.87
2023-01-09T06:35:33.817Z,71.03
2023-01-09T06:36:33.836Z,75.45
2023-01-09T06:37:33.836Z,71.96
2023-01-09T06:38:33.797Z,75.53
2023-01-09T06:39:33.836Z,74.19
2023-01-09T06:40:33.867Z,73.45
2023-01-09T06:41:33.792Z,72.74
2023-01-09T06:42:33.808Z,71.91
2023-01-09T06:43:33.800Z,73.57
2023-01-09T06:44:33.782Z,71.66
2023-01-09T06:45:33.768Z,70.62
2023-01-09T06:46:33.815Z,75.15
2023-01-09T06:47:33.801Z,73.01
2023-01-09T06:48:33.762Z,71.72
2023-01-09T06:49:33.776Z,73.15
2023-01-09T06:50:33.746Z,70.76
2023-01-09T06:51:33.736Z,74.58
2023-01-09T06:52:33.768Z,72.30
2023-01-09T06:53:33.732Z,73.61
2023-01-09T06:54:33.725Z,72.89
2023-01-09T06:55:33.708Z,72.72
2023-01-09T06:56:33.733Z,71.40
2023-01-09T06:57:33.717Z,70.17
2023-01-09T06:58:33.704Z,73.06
2023-01-09T06:59:33.697Z,70.38
2023-01-09T07:00:33.694Z,70.87
2023-01-09T07:01:33.766Z,68.73
2023-01-09T07:02:33.692Z,68.10
2023-01-09T07:03:33.957Z,72.62
2023-01-09T07:04:34.653Z,72.70
2023-01-09T07:05:33.653Z,73.26
2023-01-09T07:06:34.698Z,73.06
2023-01-09T07:07:33.654Z,75.65
2023-01-09T07:08:33.633Z,72.23
2023-01-09T07:09:33.637Z,72.89
2023-01-09T07:10:33.624Z,71.80
2023-01-09T07:11:33.620Z,71.69
2023-01-09T07:12:33.630Z,73.70
2023-01-09T07:13:33.628Z,72.32
2023-01-09T07:14:33.601Z,73.37
2023-01-09T07:15:33.607Z,72.94
2023-01-09T07:16:33.603Z,68.79
2023-01-09T07:17:33.584Z,75.74
2023-01-09T07:18:33.594Z,73.43
2023-01-09T07:19:33.581Z,68.11
2023-01-09T07:20:34.191Z,72.82
2023-01-09T07:21:33.573Z,74.00
2023-01-09T07:22:33.570Z,70.48
2023-01-09T07:23:33.561Z,72.79
2023-01-09T07:24:33.581Z,72.21
2023-01-09T07:25:33.540Z,71.54
2023-01-09T07:26:33.539Z,71.60
2023-01-09T07:27:33.544Z,74.44
2023-01-09T07:28:33.534Z,66.23
2023-01-09T07:29:33.524Z,71.81
2023-01-09T07:30:33.524Z,69.73
2023-01-09T07:31:33.558Z,73.52
2023-01-09T07:32:33.512Z,68.13
2023-01-09T07:33:33.508Z,71.03
2023-01-09T07:34:33.517Z,72.38
2023-01-09T07:35:33.513Z,71.31
2023-01-09T07:36:33.491Z,74.48
2023-01-09T07:37:33.470Z,71.68
2023-01-09T07:38:33.469Z,68.52
2023-01-09T07:39:33.507Z,71.19
2023-01-09T07:40:33.474Z,74.79
2023-01-09T07:41:33.457Z,72.69
2023-01-09T07:42:33.469Z,73.34
2023-01-09T07:43:33.469Z,74.14
2023-01-09T07:44:33.445Z,72.82
2023-01-09T07:45:33.447Z,71.26
2023-01-09T07:46:33.469Z,72.36
2023-01-09T07:47:33.418Z,75.36
2023-01-09T07:48:33.450Z,72.32
2023-01-09T07:49:33.445Z,72.83
2023-01-09T07:50:33.412Z,73.16
2023-01-09T07:51:33.414Z,72.79
2023-01-09T07:52:33.387Z,73.02
2023-01-09T07:53:33.390Z,73.40
2023-01-09T07:54:33.418Z,73.80
2023-01-09T07:55:33.382Z,73.39
2023-01-09T07:56:33.383Z,69.96
2023-01-09T07:57:33.378Z,71.51
2023-01-09T07:58:33.370Z,71.39
2023-01-09T07:59:33.366Z,72.95
2023-01-09T08:00:33.451Z,72.32
2023-01-09T08:01:33.503Z,68.71
2023-01-09T08:02:33.382Z,69.77
2023-01-09T08:03:33.361Z,71.00
2023-01-09T08:04:33.338Z,72.27
2023-01-09T08:05:33.332Z,70.32
2023-01-09T08:06:33.342Z,73.20
2023-01-09T08:07:33.321Z,74.27
2023-01-09T08:08:33.289Z,69.24
2023-01-09T08:09:34.335Z,71.07
2023-01-09T08:10:33.310Z,72.40
2023-01-09T08:11:33.340Z,70.47
2023-01-09T08:12:33.286Z,74.28
2023-01-09T08:13:33.272Z,73.72
2023-01-09T08:14:33.264Z,70.50
2023-01-09T08:15:33.338Z,73.92
2023-01-09T08:16:33.239Z,73.04
2023-01-09T08:17:34.251Z,73.25
2023-01-09T08:18:33.251Z,72.06
2023-01-09T08:19:33.235Z,70.43
2023-01-09T08:20:33.251Z,69.65
2023-01-09T08:21:33.245Z,72.01
2023-01-09T08:22:33.211Z,71.42
2023-01-09T08:23:33.212Z,69.06
2023-01-09T08:24:33.228Z,71.11
2023-01-09T08:25:33.217Z,68.30
2023-01-09T08:26:33.207Z,71.12
2023-01-09T08:27:33.201Z,70.26
2023-01-09T08:28:33.193Z,71.42
2023-01-09T08:29:33.191Z,70.98
2023-01-09T08:30:33.184Z,67.95
2023-01-09T08:31:33.261Z,67.94
2023-01-09T08:32:33.203Z,69.22
2023-01-09T08:33:33.179Z,72.70
2023-01-09T08:34:33.190Z,71.73
2023-01-09T08:35:33.161Z,69.12
2023-01-09T08:36:33.137Z,70.32
2023-01-09T08:37:33.158Z,75.58
2023-01-09T08:38:33.133Z,74.61
2023-01-09T08:39:33.128Z,67.62
2023-01-09T08:40:33.145Z,72.91
2023-01-09T08:41:33.109Z,69.25
2023-01-09T08:42:33.109Z,72.16
2023-01-09T08:43:33.121Z,74.03
2023-01-09T08:44:33.110Z,73.51
2023-01-09T08:45:33.111Z,71.67
2023-01-09T08:46:34.781Z,70.24
2023-01-09T08:47:34.093Z,67.85
2023-01-09T08:48:33.076Z,69.78
2023-01-09T08:49:33.097Z,70.85
2023-01-09T08:50:33.079Z,71.91
2023-01-09T08:51:33.063Z,70.95
2023-01-09T08:52:33.062Z,70.30
2023-01-09T08:53:33.050Z,70.64
2023-01-09T08:54:33.040Z,71.20
2023-01-09T08:55:33.053Z,70.37
2023-01-09T08:56:33.053Z,73.06
2023-01-09T08:57:33.024Z,72.14
2023-01-09T08:58:33.051Z,72.62
2023-01-09T08:59:33.003Z,70.66
2023-01-09T09:00:32.999Z,72.21
2023-01-09T09:01:33.097Z,71.57
2023-01-09T09:02:32.998Z,69.78
2023-01-09T09:03:33.024Z,74.50
2023-01-09T09:04:32.969Z,71.50
2023-01-09T09:05:33.972Z,72.50
2023-01-09T09:06:32.956Z,72.78
2023-01-09T09:07:32.963Z,68.00
2023-01-09T09:08:32.984Z,72.83
2023-01-09T09:09:32.938Z,74.04
2023-01-09T09:10:32.968Z,70.42
2023-01-09T09:11:32.967Z,69.16
2023-01-09T09:12:32.912Z,71.96
2023-01-09T09:13:33.937Z,68.39
2023-01-09T09:14:32.918Z,69.56
2023-01-09T09:15:32.895Z,76.01
2023-01-09T09:16:32.909Z,68.13
2023-01-09T09:17:32.878Z,71.08
2023-01-09T09:18:32.884Z,72.41
2023-01-09T09:19:32.878Z,71.17
2023-01-09T09:20:32.911Z,72.58
2023-01-09T09:21:32.855Z,70.87
2023-01-09T09:22:32.873Z,70.98
2023-01-09T09:23:32.855Z,68.76
2023-01-09T09:24:32.874Z,71.77
2023-01-09T09:25:32.856Z,74.10
2023-01-09T09:26:32.822Z,72.11
2023-01-09T09:27:32.824Z,73.38
2023-01-09T09:28:32.817Z,73.79
2023-01-09T09:29:32.817Z,72.12
2023-01-09T09:30:32.837Z,74.25
2023-01-09T09:31:32.832Z,71.33
2023-01-09T09:32:32.845Z,71.01
2023-01-09T09:33:32.776Z,71.36
2023-01-09T09:34:32.797Z,71.39
2023-01-09T09:35:32.785Z,69.24
2023-01-09T09:36:32.848Z,72.64
2023-01-09T09:37:32.755Z,70.53
2023-01-09T09:38:32.753Z,63.63
2023-01-09T09:39:32.737Z,72.51
2023-01-09T09:40:32.746Z,69.97
2023-01-09T09:41:32.755Z,74.11
2023-01-09T09:42:32.735Z,71.55
2023-01-09T09:43:32.740Z,71.24
2023-01-09T09:44:32.714Z,71.03
2023-01-09T09:45:32.704Z,71.42
2023-01-09T09:46:32.803Z,72.02
2023-01-09T09:47:32.702Z,71.40
2023-01-09T09:48:32.679Z,72.38
2023-01-09T09:49:32.664Z,71.34
2023-01-09T09:50:32.671Z,71.57
2023-01-09T09:51:32.658Z,73.62
2023-01-09T09:52:32.658Z,70.74
2023-01-09T09:53:32.670Z,70.99
2023-01-09T09:54:32.633Z,65.35
2023-01-09T09:55:32.635Z,63.51
2023-01-09T09:56:32.631Z,69.47
2023-01-09T09:57:32.617Z,73.91
2023-01-09T09:58:32.625Z,70.83
2023-01-09T09:59:32.634Z,65.91
2023-01-09T10:00:32.597Z,71.67
2023-01-09T10:01:32.580Z,71.35
2023-01-09T10:02:32.621Z,69.61
2023-01-09T10:03:34.070Z,70.61
2023-01-09T10:04:33.582Z,69.39
2023-01-09T10:05:32.576Z,73.09
2023-01-09T10:06:32.569Z,71.36
2023-01-09T10:07:32.552Z,74.01
2023-01-09T10:08:32.577Z,71.98
2023-01-09T10:09:32.546Z,72.06
2023-01-09T10:10:32.670Z,65.92
2023-01-09T10:11:32.545Z,70.50
2023-01-09T10:12:32.516Z,73.18
2023-01-09T10:13:32.665Z,70.62
2023-01-09T10:14:33.528Z,73.63
2023-01-09T10:15:32.517Z,72.62
2023-01-09T10:16:32.504Z,71.48
2023-01-09T10:17:32.496Z,69.84
2023-01-09T10:18:32.495Z,71.45
2023-01-09T10:19:32.481Z,71.85
2023-01-09T10:20:32.473Z,68.45
2023-01-09T10:21:32.470Z,73.56
2023-01-09T10:22:32.452Z,69.79
2023-01-09T10:23:32.481Z,67.50
2023-01-09T10:24:32.438Z,70.18
2023-01-09T10:25:32.446Z,74.45
2023-01-09T10:26:32.468Z,76.01
2023-01-09T10:27:32.417Z,74.26
2023-01-09T10:28:33.420Z,73.56
2023-01-09T10:29:32.445Z,70.58
2023-01-09T10:30:32.415Z,73.86
2023-01-09T10:31:32.435Z,68.90
2023-01-09T10:32:32.423Z,67.28
2023-01-09T10:33:32.396Z,71.87
2023-01-09T10:34:32.381Z,71.78
2023-01-09T10:35:42.762Z,68.95
2023-01-09T10:36:34.396Z,71.83
2023-01-09T10:37:32.394Z,69.20
2023-01-09T10:38:32.367Z,72.38
2023-01-09T10:39:32.353Z,67.17
2023-01-09T10:40:32.339Z,69.61
2023-01-09T10:41:32.336Z,69.45
2023-01-09T10:42:32.316Z,69.48
2023-01-09T10:43:33.337Z,70.74
2023-01-09T10:44:32.333Z,72.40
2023-01-09T10:45:32.318Z,69.92
2023-01-09T10:46:32.394Z,71.47
2023-01-09T10:47:32.309Z,67.32
2023-01-09T10:48:32.300Z,72.16
2023-01-09T10:49:32.291Z,73.04
2023-01-09T10:50:32.288Z,71.60
2023-01-09T10:51:32.316Z,71.25
2023-01-09T10:52:32.272Z,71.64
2023-01-09T10:53:32.271Z,72.91
2023-01-09T10:54:32.260Z,71.92
2023-01-09T10:55:32.240Z,74.15
2023-01-09T10:56:32.242Z,69.81
2023-01-09T10:57:32.245Z,71.95
2023-01-09T10:58:32.212Z,71.70
2023-01-09T10:59:32.242Z,71.70
2023-01-09T11:00:32.208Z,68.63
2023-01-09T11:01:32.201Z,70.09
2023-01-09T11:02:32.276Z,74.87
2023-01-09T11:03:32.233Z,73.62
2023-01-09T11:04:32.181Z,72.37
2023-01-09T11:05:32.913Z,73.02
2023-01-09T11:06:33.174Z,72.41
2023-01-09T11:07:32.161Z,72.00
2023-01-09T11:08:32.180Z,71.03
2023-01-09T11:09:32.148Z,71.05
2023-01-09T11:10:32.152Z,75.22
2023-01-09T11:11:32.151Z,68.63
2023-01-09T11:12:32.136Z,72.53
2023-01-09T11:13:32.120Z,71.22
2023-01-09T11:14:32.162Z,69.75
2023-01-09T11:15:32.119Z,72.17
2023-01-09T11:16:32.153Z,72.08
2023-01-09T11:17:32.106Z,70.07
2023-01-09T11:18:32.111Z,73.67
2023-01-09T11:19:32.098Z,71.89
2023-01-09T11:20:32.151Z,72.64
2023-01-09T11:21:32.112Z,72.00
2023-01-09T11:22:32.091Z,67.32
2023-01-09T11:23:32.075Z,64.75
2023-01-09T11:24:32.060Z,72.95
2023-01-09T11:25:32.055Z,74.73
2023-01-09T11:26:33.056Z,70.68
2023-01-09T11:27:32.044Z,68.97
2023-01-09T11:28:32.077Z,62.09
2023-01-09T11:29:32.043Z,73.96
2023-01-09T11:30:32.022Z,69.38
2023-01-09T11:31:32.049Z,70.96
2023-01-09T11:32:32.006Z,71.96
2023-01-09T11:33:32.013Z,70.01
2023-01-09T11:34:31.984Z,73.82
2023-01-09T11:35:34.363Z,73.39
2023-01-09T11:36:33.000Z,71.49
2023-01-09T11:37:31.975Z,70.96
2023-01-09T11:38:31.970Z,72.75
2023-01-09T11:39:31.961Z,72.64
2023-01-09T11:40:31.945Z,69.88
2023-01-09T11:41:31.991Z,71.09
2023-01-09T11:42:31.938Z,74.14
2023-01-09T11:43:31.923Z,75.33
2023-01-09T11:44:31.945Z,71.40
2023-01-09T11:45:31.913Z,65.33
2023-01-09T11:46:31.982Z,74.61
2023-01-09T11:47:31.912Z,72.37
2023-01-09T11:48:31.907Z,72.48
2023-01-09T11:49:31.889Z,70.66
2023-01-09T11:50:31.909Z,69.83
2023-01-09T11:51:31.886Z,70.41
2023-01-09T11:52:31.859Z,69.81
2023-01-09T11:53:31.859Z,74.36
2023-01-09T11:54:31.870Z,71.47
2023-01-09T11:55:41.910Z,71.95
2023-01-09T11:56:33.867Z,74.46
2023-01-09T11:57:31.882Z,70.01
2023-01-09T11:58:31.839Z,72.94
2023-01-09T11:59:31.827Z,73.44
2023-01-09T12:00:31.815Z,73.88
2023-01-09T12:01:31.844Z,72.01
2023-01-09T12:02:31.804Z,70.76
2023-01-09T12:03:31.831Z,70.91
2023-01-09T12:04:31.827Z,73.72
2023-01-09T12:05:31.783Z,71.80
2023-01-09T12:06:31.780Z,71.14
2023-01-09T12:07:31.807Z,69.53
2023-01-09T12:08:31.795Z,71.97
2023-01-09T12:09:31.761Z,75.32
2023-01-09T12:10:31.771Z,74.21
2023-01-09T12:11:31.779Z,71.72
2023-01-09T12:12:31.768Z,72.28
2023-01-09T12:13:31.718Z,72.44
2023-01-09T12:14:32.742Z,73.51
2023-01-09T12:15:31.727Z,71.06
2023-01-09T12:16:31.780Z,71.81
2023-01-09T12:17:31.833Z,72.20
2023-01-09T12:18:32.561Z,73.90
2023-01-09T12:19:31.750Z,72.27
2023-01-09T12:20:31.706Z,71.21
2023-01-09T12:21:31.727Z,76.05
2023-01-09T12:22:31.680Z,71.85
2023-01-09T12:23:31.721Z,70.84
2023-01-09T12:24:31.673Z,71.74
2023-01-09T12:25:31.644Z,68.98
2023-01-09T12:26:31.644Z,73.68
2023-01-09T12:27:31.647Z,72.65
2023-01-09T12:28:31.643Z,74.49
2023-01-09T12:29:31.651Z,69.24
2023-01-09T12:30:31.621Z,75.67
2023-01-09T12:31:31.654Z,73.49
2023-01-09T12:32:31.608Z,75.38
2023-01-09T12:33:31.600Z,73.79
2023-01-09T12:34:31.607Z,75.11
2023-01-09T12:35:31.614Z,73.29
2023-01-09T12:36:31.595Z,71.74
2023-01-09T12:37:32.628Z,75.43
2023-01-09T12:38:31.571Z,72.18
2023-01-09T12:39:31.579Z,73.72
2023-01-09T12:40:31.601Z,73.73
2023-01-09T12:41:31.545Z,71.24
2023-01-09T12:42:31.529Z,73.14
2023-01-09T12:43:31.547Z,73.58
2023-01-09T12:44:35.864Z,74.07
2023-01-09T12:45:32.611Z,74.31
2023-01-09T12:46:31.558Z,72.16
2023-01-09T12:47:31.501Z,71.13
2023-01-09T12:48:31.559Z,71.13
2023-01-09T12:49:31.490Z,69.04
2023-01-09T12:50:31.519Z,71.51
2023-01-09T12:51:31.514Z,70.37
2023-01-09T12:52:31.493Z,71.66